<?xml version="1.0" encoding="UTF-8" standalone="no" ?>
<gpx xmlns="http://www.topografix.com/GPX/1/1" xmlns:xsi="http://www.w3.org/2001/XMLSchema-instance" xsi:schemaLocation="http://www.topografix.com/GPX/1/1 http://www.topografix.com/GPX/1/1/gpx.xsd" version="1.1" creator="VisuGPX - https://www.visugpx.com">
  <metadata>
    <name>23 Juin - Marrakech retour hôtel et Menara</name>
    <desc><![CDATA[Marrakech
dernier jour avant le départ pour l'aéroport
retour hôtel et Menara]]></desc>
  </metadata>
  <trk>
    <name><![CDATA[2018-06-23 15:47:58]]></name>
    <trkseg>
      <trkpt lat="31.6224" lon="-7.99739">
        <ele>505.98</ele>
        <time>2018-06-23T13:49:56Z</time>
      </trkpt>
      <trkpt lat="31.62236" lon="-7.99785">
        <ele>506.11</ele>
        <time>2018-06-23T13:50:56Z</time>
      </trkpt>
      <trkpt lat="31.62206" lon="-7.99866">
        <ele>506.11</ele>
        <time>2018-06-23T13:51:56Z</time>
      </trkpt>
      <trkpt lat="31.62224" lon="-7.99943">
        <ele>504.83</ele>
        <time>2018-06-23T13:52:56Z</time>
      </trkpt>
      <trkpt lat="31.62156" lon="-7.99976">
        <ele>505.56</ele>
        <time>2018-06-23T13:53:56Z</time>
      </trkpt>
      <trkpt lat="31.62116" lon="-8.00058">
        <ele>505.16</ele>
        <time>2018-06-23T13:54:56Z</time>
      </trkpt>
      <trkpt lat="31.62077" lon="-8.00145">
        <ele>505.98</ele>
        <time>2018-06-23T13:55:56Z</time>
      </trkpt>
      <trkpt lat="31.62042" lon="-8.0023">
        <ele>506.02</ele>
        <time>2018-06-23T13:56:56Z</time>
      </trkpt>
      <trkpt lat="31.62006" lon="-8.00315">
        <ele>505.2</ele>
        <time>2018-06-23T13:57:56Z</time>
      </trkpt>
      <trkpt lat="31.61967" lon="-8.00407">
        <ele>505.99</ele>
        <time>2018-06-23T13:58:56Z</time>
      </trkpt>
      <trkpt lat="31.61931" lon="-8.00495">
        <ele>506.17</ele>
        <time>2018-06-23T13:59:56Z</time>
      </trkpt>
      <trkpt lat="31.61894" lon="-8.00583">
        <ele>506.12</ele>
        <time>2018-06-23T14:00:56Z</time>
      </trkpt>
      <trkpt lat="31.61859" lon="-8.00668">
        <ele>506.3</ele>
        <time>2018-06-23T14:01:56Z</time>
      </trkpt>
      <trkpt lat="31.61823" lon="-8.00754">
        <ele>506.65</ele>
        <time>2018-06-23T14:02:56Z</time>
      </trkpt>
      <trkpt lat="31.61811" lon="-8.0084">
        <ele>506.99</ele>
        <time>2018-06-23T14:03:56Z</time>
      </trkpt>
      <trkpt lat="31.61755" lon="-8.00906">
        <ele>507.01</ele>
        <time>2018-06-23T14:04:56Z</time>
      </trkpt>
      <trkpt lat="31.6172" lon="-8.00995">
        <ele>507.25</ele>
        <time>2018-06-23T14:05:56Z</time>
      </trkpt>
      <trkpt lat="31.61683" lon="-8.01083">
        <ele>507.02</ele>
        <time>2018-06-23T14:06:56Z</time>
      </trkpt>
      <trkpt lat="31.61646" lon="-8.0117">
        <ele>507.65</ele>
        <time>2018-06-23T14:07:56Z</time>
      </trkpt>
      <trkpt lat="31.61609" lon="-8.01258">
        <ele>507.71</ele>
        <time>2018-06-23T14:08:56Z</time>
      </trkpt>
      <trkpt lat="31.61572" lon="-8.01346">
        <ele>507.57</ele>
        <time>2018-06-23T14:09:56Z</time>
      </trkpt>
      <trkpt lat="31.61549" lon="-8.0144">
        <ele>507.65</ele>
        <time>2018-06-23T14:10:57Z</time>
      </trkpt>
      <trkpt lat="31.61498" lon="-8.01526">
        <ele>506.98</ele>
        <time>2018-06-23T14:11:57Z</time>
      </trkpt>
      <trkpt lat="31.61459" lon="-8.01614">
        <ele>506.96</ele>
        <time>2018-06-23T14:12:57Z</time>
      </trkpt>
      <trkpt lat="31.61438" lon="-8.01704">
        <ele>506.81</ele>
        <time>2018-06-23T14:13:57Z</time>
      </trkpt>
      <trkpt lat="31.61393" lon="-8.01741">
        <ele>507.31</ele>
        <time>2018-06-23T14:14:57Z</time>
      </trkpt>
      <trkpt lat="31.61357" lon="-8.0183">
        <ele>507.47</ele>
        <time>2018-06-23T14:15:57Z</time>
      </trkpt>
      <trkpt lat="31.61323" lon="-8.0192">
        <ele>507.96</ele>
        <time>2018-06-23T14:16:57Z</time>
      </trkpt>
      <trkpt lat="31.61296" lon="-8.02011">
        <ele>508.07</ele>
        <time>2018-06-23T14:17:57Z</time>
      </trkpt>
      <trkpt lat="31.61292" lon="-8.02042">
        <ele>509.4</ele>
        <time>2018-06-23T14:18:57Z</time>
      </trkpt>
      <trkpt lat="31.61289" lon="-8.02026">
        <ele>508.26</ele>
        <time>2018-06-23T14:19:57Z</time>
      </trkpt>
      <trkpt lat="31.61294" lon="-8.02">
        <ele>507.84</ele>
        <time>2018-06-23T14:20:57Z</time>
      </trkpt>
      <trkpt lat="31.61325" lon="-8.01919">
        <ele>507.22</ele>
        <time>2018-06-23T14:21:57Z</time>
      </trkpt>
      <trkpt lat="31.61359" lon="-8.01835">
        <ele>508.84</ele>
        <time>2018-06-23T14:22:57Z</time>
      </trkpt>
      <trkpt lat="31.61398" lon="-8.01745">
        <ele>508.82</ele>
        <time>2018-06-23T14:23:57Z</time>
      </trkpt>
      <trkpt lat="31.61433" lon="-8.01716">
        <ele>508.27</ele>
        <time>2018-06-23T14:24:57Z</time>
      </trkpt>
      <trkpt lat="31.61462" lon="-8.01702">
        <ele>508.98</ele>
        <time>2018-06-23T14:25:57Z</time>
      </trkpt>
      <trkpt lat="31.61538" lon="-8.01752">
        <ele>508.49</ele>
        <time>2018-06-23T14:26:57Z</time>
      </trkpt>
      <trkpt lat="31.61602" lon="-8.01798">
        <ele>507.79</ele>
        <time>2018-06-23T14:27:57Z</time>
      </trkpt>
      <trkpt lat="31.61677" lon="-8.01846">
        <ele>507.17</ele>
        <time>2018-06-23T14:28:57Z</time>
      </trkpt>
      <trkpt lat="31.61749" lon="-8.01895">
        <ele>506.64</ele>
        <time>2018-06-23T14:29:57Z</time>
      </trkpt>
      <trkpt lat="31.61825" lon="-8.01941">
        <ele>506.22</ele>
        <time>2018-06-23T14:30:57Z</time>
      </trkpt>
      <trkpt lat="31.61896" lon="-8.01984">
        <ele>505.7</ele>
        <time>2018-06-23T14:32:00Z</time>
      </trkpt>
      <trkpt lat="31.61966" lon="-8.02037">
        <ele>505.02</ele>
        <time>2018-06-23T14:33:00Z</time>
      </trkpt>
      <trkpt lat="31.62033" lon="-8.02054">
        <ele>504.63</ele>
        <time>2018-06-23T14:34:00Z</time>
      </trkpt>
      <trkpt lat="31.62099" lon="-8.02108">
        <ele>502.37</ele>
        <time>2018-06-23T14:35:00Z</time>
      </trkpt>
      <trkpt lat="31.62163" lon="-8.02166">
        <ele>502.88</ele>
        <time>2018-06-23T14:36:00Z</time>
      </trkpt>
      <trkpt lat="31.62236" lon="-8.02214">
        <ele>502.48</ele>
        <time>2018-06-23T14:37:00Z</time>
      </trkpt>
      <trkpt lat="31.6231" lon="-8.02262">
        <ele>501.87</ele>
        <time>2018-06-23T14:38:00Z</time>
      </trkpt>
      <trkpt lat="31.62387" lon="-8.02303">
        <ele>501.01</ele>
        <time>2018-06-23T14:39:00Z</time>
      </trkpt>
      <trkpt lat="31.62454" lon="-8.02358">
        <ele>501.11</ele>
        <time>2018-06-23T14:40:00Z</time>
      </trkpt>
      <trkpt lat="31.62526" lon="-8.02402">
        <ele>501.32</ele>
        <time>2018-06-23T14:41:00Z</time>
      </trkpt>
      <trkpt lat="31.62599" lon="-8.02459">
        <ele>500.79</ele>
        <time>2018-06-23T14:42:00Z</time>
      </trkpt>
      <trkpt lat="31.6267" lon="-8.02502">
        <ele>501.03</ele>
        <time>2018-06-23T14:43:00Z</time>
      </trkpt>
      <trkpt lat="31.6273" lon="-8.02512">
        <ele>500.28</ele>
        <time>2018-06-23T14:44:00Z</time>
      </trkpt>
      <trkpt lat="31.62755" lon="-8.02412">
        <ele>499.93</ele>
        <time>2018-06-23T14:45:00Z</time>
      </trkpt>
      <trkpt lat="31.6278" lon="-8.02319">
        <ele>499.93</ele>
        <time>2018-06-23T14:46:00Z</time>
      </trkpt>
      <trkpt lat="31.62786" lon="-8.0233">
        <ele>501.15</ele>
        <time>2018-06-23T14:47:00Z</time>
      </trkpt>
      <trkpt lat="31.6274" lon="-8.02332">
        <ele>500.8</ele>
        <time>2018-06-23T14:47:58Z</time>
      </trkpt>
    </trkseg>
  </trk>
</gpx>